createdAt,value
2023-04-19T00:01:21.184Z,99964.31
2023-04-19T00:03:54.658Z,99961.64
2023-04-19T00:06:29.908Z,99972.98
2023-04-19T00:09:04.304Z,99962.57
2023-04-19T00:11:37.568Z,99963.44
2023-04-19T00:14:11.060Z,99965.20
2023-04-19T00:16:44.698Z,99972.20
2023-04-19T00:19:18.550Z,99978.34
2023-04-19T00:21:51.960Z,99973.14
2023-04-19T00:24:25.124Z,99985.37
2023-04-19T00:26:59.190Z,99974.03
2023-04-19T00:29:32.654Z,99969.66
2023-04-19T00:32:06.855Z,99971.37
2023-04-19T00:34:40.379Z,99974.01
2023-04-19T00:37:14.023Z,99965.23
2023-04-19T00:39:47.449Z,99966.05
2023-04-19T00:42:22.055Z,99967.74
2023-04-19T00:44:55.169Z,99965.08
2023-04-19T00:47:28.882Z,99969.45
2023-04-19T00:50:02.838Z,99979.05
2023-04-19T00:52:36.786Z,99971.20
2023-04-19T00:55:11.538Z,99973.78
2023-04-19T00:57:45.641Z,99970.14
2023-04-19T01:00:20.157Z,99972.70
2023-04-19T01:02:54.025Z,99970.92
2023-04-19T01:05:27.245Z,99976.15
2023-04-19T01:08:01.009Z,99967.42
2023-04-19T01:10:34.391Z,99962.20
2023-04-19T01:13:07.847Z,99965.63
2023-04-19T01:15:43.040Z,99957.75
2023-04-19T01:18:16.168Z,99965.50
2023-04-19T01:20:49.644Z,99968.92
2023-04-19T01:23:23.376Z,99966.31
2023-04-19T01:25:56.598Z,99963.70
2023-04-19T01:28:31.276Z,99960.25
2023-04-19T01:31:04.821Z,99959.33
2023-04-19T01:33:38.156Z,99963.68
2023-04-19T01:36:13.934Z,99966.29
2023-04-19T01:38:48.523Z,99961.07
2023-04-19T01:41:23.068Z,99967.16
2023-04-19T01:43:56.441Z,99969.77
2023-04-19T01:46:29.753Z,99969.84
2023-04-19T01:49:03.338Z,99961.07
2023-04-19T01:51:36.636Z,99962.72
2023-04-19T01:54:10.015Z,99968.88
2023-04-19T01:56:43.503Z,99958.48
2023-04-19T01:59:16.869Z,99961.89
2023-04-19T02:01:50.579Z,99962.67
2023-04-19T02:04:24.051Z,99956.58
2023-04-19T02:06:57.304Z,99963.56
2023-04-19T02:09:30.783Z,99970.55
2023-04-19T02:12:03.999Z,99964.47
2023-04-19T02:14:38.076Z,99960.09
2023-04-19T02:17:12.365Z,99963.48
2023-04-19T02:19:46.025Z,99959.92
2023-04-19T02:22:19.305Z,99965.98
2023-04-19T02:24:53.964Z,99955.44
2023-04-19T02:27:28.719Z,99966.77
2023-04-19T02:30:02.158Z,99973.75
2023-04-19T02:32:37.075Z,99971.17
2023-04-19T02:35:13.961Z,99967.72
2023-04-19T02:37:47.465Z,99971.14
2023-04-19T02:40:22.496Z,99964.95
2023-04-19T02:42:56.507Z,99976.16
2023-04-19T02:45:30.791Z,99981.31
2023-04-19T02:48:04.356Z,99980.45
2023-04-19T02:50:39.864Z,99983.98
2023-04-19T02:53:13.690Z,99981.31
2023-04-19T02:55:47.602Z,99987.41
2023-04-19T02:58:22.354Z,99989.11
2023-04-19T03:00:57.536Z,99975.90
2023-04-19T03:03:31.214Z,99983.69
2023-04-19T03:06:05.239Z,99973.95
2023-04-19T03:08:38.909Z,99985.46
2023-04-19T03:11:16.280Z,99988.07
2023-04-19T03:13:49.885Z,99986.36
2023-04-19T03:16:23.139Z,99991.70
2023-04-19T03:18:56.947Z,99995.26
2023-04-19T03:21:31.572Z,99995.34
2023-04-19T03:24:05.168Z,99985.81
2023-04-19T03:26:39.043Z,99991.03
2023-04-19T03:29:12.473Z,99992.77
2023-04-19T03:31:47.714Z,99999.89
2023-04-19T03:34:21.366Z,99986.97
2023-04-19T03:36:54.872Z,99986.16
2023-04-19T03:39:28.699Z,99985.34
2023-04-19T03:42:03.784Z,99995.78
2023-04-19T03:44:41.345Z,99988.79
2023-04-19T03:47:15.043Z,99991.42
2023-04-19T03:49:50.052Z,99988.95
2023-04-19T03:52:23.570Z,99995.21
2023-04-19T03:54:56.872Z,99993.58
2023-04-19T03:57:32.196Z,99996.34
2023-04-19T04:00:08.969Z,99996.53
2023-04-19T04:02:45.132Z,99993.21
2023-04-19T04:05:19.205Z,99996.80
2023-04-19T04:07:58.749Z,99990.80
2023-04-19T04:10:32.616Z,99994.36
2023-04-19T04:13:06.311Z,99990.83
2023-04-19T04:15:41.948Z,99995.25
2023-04-19T04:18:17.941Z,99991.05
2023-04-19T04:20:54.304Z,99997.48
2023-04-19T04:23:32.717Z,99995.11
2023-04-19T04:26:10.301Z,99990.05
2023-04-19T04:28:46.102Z,99992.81
2023-04-19T04:31:19.478Z,100000.84
2023-04-19T04:33:56.280Z,99991.48
2023-04-19T04:36:31.343Z,99994.30
2023-04-19T04:39:10.634Z,99995.48
2023-04-19T04:44:47.493Z,100001.10
2023-04-19T04:47:22.288Z,99995.25
2023-04-19T04:49:57.242Z,100000.77
2023-04-19T04:52:31.063Z,100004.42
2023-04-19T04:55:07.551Z,99998.47
2023-04-19T04:57:42.183Z,99995.16
2023-04-19T05:00:18.547Z,100001.39
2023-04-19T05:02:53.915Z,100008.48
2023-04-19T05:05:28.718Z,100007.72
2023-04-19T05:08:02.338Z,100010.42
2023-04-19T05:10:36.150Z,100001.75
2023-04-19T05:13:10.799Z,100017.45
2023-04-19T05:15:45.301Z,100012.24
2023-04-19T05:18:19.577Z,100013.16
2023-04-19T05:20:52.886Z,100008.77
2023-04-19T05:23:27.995Z,100017.50
2023-04-19T05:26:01.277Z,100026.17
2023-04-19T05:28:34.798Z,100014.79
2023-04-19T05:31:16.373Z,100019.12
2023-04-19T05:33:51.340Z,100023.52
2023-04-19T05:36:24.983Z,100023.59
2023-04-19T05:38:58.421Z,100023.72
2023-04-19T05:41:31.765Z,100025.55
2023-04-19T05:44:05.489Z,100022.95
2023-04-19T05:46:39.622Z,100018.53
2023-04-19T05:49:15.070Z,100024.58
2023-04-19T05:52:05.556Z,100021.95
2023-04-19T05:54:49.484Z,100026.30
2023-04-19T05:57:22.650Z,100027.28
2023-04-19T05:59:56.083Z,100024.00
2023-04-19T06:02:31.131Z,100025.00
2023-04-19T06:05:09.361Z,100031.27
2023-04-19T06:07:43.999Z,100030.47
2023-04-19T06:10:17.080Z,100027.94
2023-04-19T06:12:50.697Z,100028.84
2023-04-19T06:15:26.103Z,100023.62
2023-04-19T06:18:00.135Z,100021.88
2023-04-19T06:20:33.561Z,100031.50
2023-04-19T06:23:07.242Z,100032.32
2023-04-19T06:25:41.372Z,100035.73
2023-04-19T06:28:14.931Z,100025.06
2023-04-19T06:30:49.392Z,100038.13
2023-04-19T06:33:22.588Z,100035.38
2023-04-19T06:35:55.956Z,100042.27
2023-04-19T06:38:29.365Z,100034.97
2023-04-19T06:41:02.687Z,100040.38
2023-04-19T06:43:36.126Z,100034.86
2023-04-19T06:46:10.115Z,100033.61
2023-04-19T06:48:43.546Z,100031.00
2023-04-19T06:51:17.284Z,100034.10
2023-04-19T06:53:52.102Z,100025.69
2023-04-19T06:56:45.853Z,100039.11
2023-04-19T06:59:21.577Z,100040.58
2023-04-19T07:01:57.119Z,100034.75
2023-04-19T07:04:31.529Z,100039.42
2023-04-19T07:07:05.640Z,100038.67
2023-04-19T07:09:39.321Z,100039.42
2023-04-19T07:12:12.758Z,100033.64
2023-04-19T07:14:46.166Z,100047.97
2023-04-19T07:17:19.952Z,100041.16
2023-04-19T07:19:53.437Z,100041.25
2023-04-19T07:22:26.641Z,100037.50
2023-04-19T07:24:59.893Z,100033.80
2023-04-19T07:27:35.000Z,100037.64
2023-04-19T07:30:10.448Z,100040.25
2023-04-19T07:32:43.960Z,100038.48
2023-04-19T07:35:17.560Z,100045.43
2023-04-19T07:37:50.879Z,100037.95
2023-04-19T07:40:24.423Z,100049.67
2023-04-19T07:42:59.366Z,100031.83
2023-04-19T07:45:33.834Z,100038.27
2023-04-19T07:48:08.430Z,100030.63
2023-04-19T07:50:42.027Z,100040.34
2023-04-19T07:53:16.600Z,100050.17
2023-04-19T07:55:50.022Z,100046.31
2023-04-19T07:58:23.657Z,100038.16
2023-04-19T08:00:57.345Z,100045.56
2023-04-19T08:03:31.054Z,100038.41
2023-04-19T08:06:07.264Z,100038.20
2023-04-19T08:08:40.833Z,100041.69
2023-04-19T08:11:14.412Z,100040.58
2023-04-19T08:14:02.551Z,100030.69
2023-04-19T08:17:01.392Z,100032.47
2023-04-19T08:18:58.352Z,100033.41
2023-04-19T08:21:40.688Z,100024.00
2023-04-19T08:24:09.049Z,100032.55
2023-04-19T08:26:42.695Z,100033.86
2023-04-19T08:29:16.976Z,100030.98
2023-04-19T08:31:51.172Z,100037.02
2023-04-19T08:34:24.679Z,100031.95
2023-04-19T08:37:04.006Z,100029.84
2023-04-19T08:39:35.019Z,100036.23
2023-04-19T08:42:24.600Z,100031.98
2023-04-19T08:45:02.277Z,100033.58
2023-04-19T08:47:30.323Z,100031.34
2023-04-19T08:50:11.259Z,100029.00
2023-04-19T08:52:47.944Z,100026.33
2023-04-19T08:55:12.035Z,100024.17
2023-04-19T08:57:45.626Z,100032.69
2023-04-19T09:00:21.430Z,100022.95
2023-04-19T09:02:56.270Z,100028.72
2023-04-19T09:05:31.382Z,100026.50
2023-04-19T09:08:25.696Z,100019.39
2023-04-19T09:11:00.702Z,100017.58
2023-04-19T09:13:36.962Z,100020.80
2023-04-19T09:16:26.172Z,100018.66
2023-04-19T09:19:15.249Z,100010.73
2023-04-19T09:21:37.328Z,100022.73
2023-04-19T09:24:11.658Z,100017.11
2023-04-19T09:26:57.952Z,100003.55
2023-04-19T09:29:31.747Z,100007.36
2023-04-19T09:32:06.433Z,100006.25
2023-04-19T09:34:43.098Z,100005.64
2023-04-19T09:37:29.682Z,99993.63
2023-04-19T09:39:52.506Z,100000.06
2023-04-19T09:42:42.654Z,100003.43
2023-04-19T09:47:39.656Z,99983.05
2023-04-19T09:50:23.744Z,100001.93
2023-04-19T09:52:51.731Z,99992.20
2023-04-19T09:55:29.236Z,99986.99
2023-04-19T09:58:02.600Z,99988.19
2023-04-19T10:00:48.964Z,99982.25
2023-04-19T10:03:13.754Z,99968.19
2023-04-19T10:05:48.604Z,99973.28
2023-04-19T10:08:22.856Z,99972.73
2023-04-19T10:10:59.174Z,99974.89
2023-04-19T10:13:32.542Z,99971.73
2023-04-19T10:16:18.231Z,99972.14
2023-04-19T10:18:42.726Z,99973.77
2023-04-19T10:21:16.995Z,99984.70
2023-04-19T10:23:51.459Z,99980.39
2023-04-19T10:26:25.014Z,99967.41
2023-04-19T10:28:59.016Z,99961.63
2023-04-19T10:31:33.250Z,99960.73
2023-04-19T10:34:08.515Z,99968.48
2023-04-19T10:36:41.992Z,99968.84
2023-04-19T10:39:43.039Z,99971.30
2023-04-19T10:42:16.437Z,99962.52
2023-04-19T10:45:24.418Z,99952.92
2023-04-19T10:47:57.962Z,99963.67
2023-04-19T10:50:32.579Z,99959.23
2023-04-19T10:53:42.374Z,99950.98
2023-04-19T10:56:17.275Z,99958.65
2023-04-19T10:59:17.641Z,99952.38
2023-04-19T11:01:57.313Z,99952.84
2023-04-19T11:05:01.998Z,99952.71
2023-04-19T11:07:42.040Z,99955.56
2023-04-19T11:10:17.073Z,99946.20
2023-04-19T11:12:52.229Z,99949.11
2023-04-19T11:15:26.331Z,99947.36
2023-04-19T11:18:11.899Z,99937.77
2023-04-19T11:20:36.535Z,99948.94
2023-04-19T11:23:18.982Z,99926.60
2023-04-19T11:25:56.738Z,99931.27
2023-04-19T11:28:30.295Z,99933.23
2023-04-19T11:31:04.727Z,99923.69
2023-04-19T11:33:38.967Z,99920.22
2023-04-19T11:36:16.313Z,99921.67
2023-04-19T11:38:50.489Z,99929.33
2023-04-19T11:41:23.852Z,99925.20
2023-04-19T11:43:57.563Z,99906.75
2023-04-19T11:46:31.133Z,99923.83
2023-04-19T11:49:04.724Z,99922.47
2023-04-19T11:51:39.588Z,99925.34
2023-04-19T11:54:19.452Z,99918.30
2023-04-19T11:57:07.057Z,99914.66
2023-04-19T11:59:41.019Z,99908.67
2023-04-19T12:02:15.411Z,99900.73
2023-04-19T12:04:49.171Z,99884.52
2023-04-19T12:07:23.518Z,99898.30
2023-04-19T12:09:56.975Z,99895.00
2023-04-19T12:12:36.877Z,99907.64
2023-04-19T12:15:12.288Z,99906.95
2023-04-19T12:18:02.221Z,99890.69
2023-04-19T12:20:37.009Z,99893.42
2023-04-19T12:23:11.358Z,99892.27
2023-04-19T12:25:47.579Z,99889.03
2023-04-19T12:28:21.461Z,99887.11
2023-04-19T12:30:55.039Z,99889.43
2023-04-19T12:33:28.257Z,99877.83
2023-04-19T12:36:29.700Z,99876.95
2023-04-19T12:39:51.448Z,99881.23
2023-04-19T12:42:28.014Z,99880.29
2023-04-19T12:48:20.936Z,99880.11
2023-04-19T12:50:54.625Z,99874.65
2023-04-19T12:53:28.365Z,99868.36
2023-04-19T12:56:01.970Z,99857.55
2023-04-19T12:58:35.710Z,99868.20
2023-04-19T13:01:09.533Z,99869.62
2023-04-19T13:03:43.245Z,99864.20
2023-04-19T13:06:17.017Z,99853.98
2023-04-19T13:08:50.998Z,99866.25
2023-04-19T13:11:24.785Z,99856.01
2023-04-19T13:13:58.333Z,99864.09
2023-04-19T13:16:31.781Z,99858.48
2023-04-19T13:19:05.552Z,99861.28
2023-04-19T13:21:39.086Z,99862.56
2023-04-19T13:24:12.723Z,99856.40
2023-04-19T13:29:29.197Z,99855.69
2023-04-19T13:32:02.825Z,99861.84
2023-04-19T13:34:36.593Z,99850.75
2023-04-19T13:37:10.178Z,99850.91
2023-04-19T13:39:44.360Z,99850.75
2023-04-19T13:42:18.103Z,99850.92
2023-04-19T13:44:58.593Z,99845.94
2023-04-19T13:47:45.661Z,99844.45
2023-04-19T13:50:51.235Z,99847.30
2023-04-19T13:53:29.258Z,99848.83
2023-04-19T13:56:02.740Z,99846.78
2023-04-19T13:58:36.521Z,99854.20
2023-04-19T14:01:10.359Z,99851.34
2023-04-19T14:03:43.993Z,99846.66
2023-04-19T14:06:17.822Z,99848.86
2023-04-19T14:08:51.558Z,99843.66
2023-04-19T14:11:26.400Z,99848.45
2023-04-19T14:13:59.939Z,99844.05
2023-04-19T14:16:33.530Z,99852.41
2023-04-19T14:19:06.988Z,99855.22
2023-04-19T14:21:40.508Z,99838.09
2023-04-19T14:24:14.338Z,99842.34
2023-04-19T14:26:56.872Z,99843.70
2023-04-19T14:29:23.526Z,99842.69
2023-04-19T14:32:01.267Z,99849.13
2023-04-19T14:34:33.674Z,99841.91
2023-04-19T14:37:07.200Z,99849.16
2023-04-19T14:39:40.778Z,99847.50
2023-04-19T14:42:14.808Z,99846.21
2023-04-19T14:44:48.414Z,99853.39
2023-04-19T14:47:22.360Z,99846.61
2023-04-19T14:49:56.263Z,99844.31
2023-04-19T14:52:30.357Z,99842.72
2023-04-19T14:55:04.255Z,99849.45
2023-04-19T14:57:37.944Z,99844.80
2023-04-19T15:00:14.293Z,99852.52
2023-04-19T15:02:47.882Z,99844.55
2023-04-19T15:05:23.338Z,99844.69
2023-04-19T15:07:57.450Z,99854.63
2023-04-19T15:10:31.268Z,99841.91
2023-04-19T15:13:08.045Z,99851.70
2023-04-19T15:15:41.763Z,99852.93
2023-04-19T15:18:15.063Z,99846.67
2023-04-19T15:20:51.239Z,99841.87
2023-04-19T15:23:26.502Z,99839.31
2023-04-19T15:25:59.983Z,99847.90
2023-04-19T15:28:36.254Z,99840.33
2023-04-19T15:31:10.779Z,99846.50
2023-04-19T15:33:44.410Z,99839.09
2023-04-19T15:36:17.959Z,99839.84
2023-04-19T15:38:51.692Z,99842.58
2023-04-19T15:41:26.046Z,99834.02
2023-04-19T15:44:00.182Z,99835.47
2023-04-19T15:46:34.486Z,99840.73
2023-04-19T15:49:08.289Z,99846.23
2023-04-19T15:51:45.202Z,99848.78
2023-04-19T15:54:23.260Z,99847.57
2023-04-19T15:56:57.477Z,99848.19
2023-04-19T15:59:31.663Z,99843.84
2023-04-19T16:02:05.610Z,99843.97
2023-04-19T16:04:39.265Z,99848.02
2023-04-19T16:07:13.016Z,99848.91
2023-04-19T16:09:46.596Z,99845.10
2023-04-19T16:12:20.363Z,99845.75
2023-04-19T16:14:54.060Z,99845.55
2023-04-19T16:17:28.025Z,99846.95
2023-04-19T16:20:01.949Z,99853.69
2023-04-19T16:22:35.685Z,99847.11
2023-04-19T16:25:11.590Z,99851.98
2023-04-19T16:27:46.090Z,99852.39
2023-04-19T16:30:19.696Z,99849.41
2023-04-19T16:32:53.595Z,99848.94
2023-04-19T16:35:27.972Z,99857.36
2023-04-19T16:38:03.326Z,99852.48
2023-04-19T16:40:37.188Z,99864.41
2023-04-19T16:43:11.178Z,99859.43
2023-04-19T16:45:45.016Z,99862.31
2023-04-19T16:48:18.675Z,99854.63
2023-04-19T16:50:54.076Z,99866.47
2023-04-19T16:53:27.856Z,99866.77
2023-04-19T16:56:03.664Z,99864.44
2023-04-19T17:01:18.670Z,99870.16
2023-04-19T17:03:53.940Z,99872.13
2023-04-19T17:06:27.922Z,99874.00
2023-04-19T17:09:04.522Z,99876.70
2023-04-19T17:11:38.365Z,99877.73
2023-04-19T17:14:11.981Z,99872.52
2023-04-19T17:16:45.220Z,99875.23
2023-04-19T17:19:19.139Z,99873.63
2023-04-19T17:21:52.737Z,99883.39
2023-04-19T17:24:26.417Z,99874.67
2023-04-19T17:26:59.710Z,99875.56
2023-04-19T17:29:33.098Z,99879.14
2023-04-19T17:32:08.432Z,99884.47
2023-04-19T17:34:42.025Z,99873.09
2023-04-19T17:37:15.541Z,99881.02
2023-04-19T17:39:48.805Z,99877.64
2023-04-19T17:42:22.673Z,99877.72
2023-04-19T17:44:56.601Z,99884.80
2023-04-19T17:47:30.945Z,99886.63
2023-04-19T17:50:11.014Z,99890.15
2023-04-19T17:52:44.509Z,99890.19
2023-04-19T17:55:20.636Z,99884.98
2023-04-19T17:57:59.088Z,99889.41
2023-04-19T18:00:45.768Z,99878.91
2023-04-19T18:03:27.187Z,99886.77
2023-04-19T18:06:03.848Z,99885.05
2023-04-19T18:08:50.484Z,99881.55
2023-04-19T18:11:28.276Z,99883.30
2023-04-19T18:14:01.335Z,99883.32
2023-04-19T18:16:35.260Z,99881.52
2023-04-19T18:19:08.656Z,99882.41
2023-04-19T18:21:42.442Z,99876.27
2023-04-19T18:24:16.765Z,99886.78
2023-04-19T18:26:50.093Z,99879.78
2023-04-19T18:29:24.469Z,99887.67
2023-04-19T18:31:58.155Z,99882.38
2023-04-19T18:34:31.957Z,99879.70
2023-04-19T18:37:07.041Z,99877.05
2023-04-19T18:39:40.546Z,99881.41
2023-04-19T18:42:14.230Z,99882.25
2023-04-19T18:47:23.498Z,99881.35
2023-04-19T18:50:05.380Z,99877.00
2023-04-19T18:52:33.722Z,99878.72
2023-04-19T18:55:08.940Z,99883.08
2023-04-19T18:57:42.837Z,99876.86
2023-04-19T19:00:18.830Z,99877.69
2023-04-19T19:02:53.221Z,99876.82
2023-04-19T19:05:27.823Z,99877.64
2023-04-19T19:08:02.208Z,99875.83
2023-04-19T19:13:12.125Z,99879.09
2023-04-19T19:15:45.609Z,99878.23
2023-04-19T19:18:19.445Z,99872.03
2023-04-19T19:20:53.730Z,99879.87
2023-04-19T19:26:04.186Z,99872.92
2023-04-19T19:28:39.880Z,99868.55
2023-04-19T19:31:15.131Z,99870.32
2023-04-19T19:33:53.670Z,99874.64
2023-04-19T19:36:25.003Z,99873.67
2023-04-19T19:39:01.039Z,99869.29
2023-04-19T19:44:11.033Z,99873.72
2023-04-19T19:46:44.820Z,99867.62
2023-04-19T19:51:58.260Z,99869.29
2023-04-19T19:54:27.136Z,99869.20
2023-04-19T19:57:48.309Z,99869.13
2023-04-19T19:59:36.564Z,99876.08
2023-04-19T20:02:10.999Z,99872.59
2023-04-19T20:04:44.909Z,99874.24
2023-04-19T20:07:29.362Z,99871.59
2023-04-19T20:09:54.577Z,99869.66
2023-04-19T20:12:28.392Z,99872.23
2023-04-19T20:15:01.994Z,99866.09
2023-04-19T20:17:36.419Z,99865.14
2023-04-19T20:20:13.012Z,99871.20
2023-04-19T20:22:47.955Z,99865.00
2023-04-19T20:25:22.064Z,99866.75
2023-04-19T20:27:58.011Z,99857.21
2023-04-19T20:30:38.852Z,99863.27
2023-04-19T20:33:15.695Z,99858.80
2023-04-19T20:36:16.665Z,99864.81
2023-04-19T20:38:50.796Z,99860.39
2023-04-19T20:41:27.277Z,99862.16
2023-04-19T20:44:01.503Z,99863.08
2023-04-19T20:46:36.583Z,99861.23
2023-04-19T20:49:10.401Z,99857.66
2023-04-19T20:51:44.326Z,99861.04
2023-04-19T20:54:18.456Z,99857.50
2023-04-19T20:56:54.108Z,99861.02
2023-04-19T20:59:27.783Z,99860.12
2023-04-19T21:02:01.738Z,99865.32
2023-04-19T21:04:38.935Z,99855.68
2023-04-19T21:07:12.806Z,99858.27
2023-04-19T21:09:46.327Z,99853.70
2023-04-19T21:12:20.068Z,99849.30
2023-04-19T21:14:53.752Z,99847.53
2023-04-19T21:17:27.653Z,99850.12
2023-04-19T21:20:02.385Z,99845.64
2023-04-19T21:22:39.074Z,99842.02
2023-04-19T21:25:14.240Z,99841.91
2023-04-19T21:27:47.888Z,99841.81
2023-04-19T21:30:23.895Z,99845.28
2023-04-19T21:32:59.032Z,99847.87
2023-04-19T21:35:33.864Z,99846.09
2023-04-19T21:38:07.721Z,99841.68
2023-04-19T21:40:41.530Z,99838.15
2023-04-19T21:43:15.120Z,99835.59
2023-04-19T21:45:48.410Z,99830.31
2023-04-19T21:48:23.171Z,99837.28
2023-04-19T21:50:56.794Z,99840.73
2023-04-19T21:53:33.290Z,99836.30
2023-04-19T21:56:08.574Z,99838.78
2023-04-19T21:58:44.912Z,99839.51
2023-04-19T22:01:22.122Z,99842.04
2023-04-19T22:03:59.197Z,99835.78
2023-04-19T22:06:33.920Z,99835.73
2023-04-19T22:09:13.545Z,99827.76
2023-04-19T22:11:47.131Z,99834.67
2023-04-19T22:14:22.384Z,99834.65
2023-04-19T22:16:56.790Z,99830.23
2023-04-19T22:19:32.616Z,99834.53
2023-04-19T22:22:06.507Z,99826.59
2023-04-19T22:24:53.849Z,99828.31
2023-04-19T22:27:15.932Z,99820.38
2023-04-19T22:29:49.813Z,99825.53
2023-04-19T22:32:23.862Z,99818.45
2023-04-19T22:34:57.645Z,99813.16
2023-04-19T22:37:31.558Z,99813.06
2023-04-19T22:40:06.972Z,99813.96
2023-04-19T22:42:40.867Z,99806.98
2023-04-19T22:45:15.150Z,99811.27
2023-04-19T22:47:49.430Z,99815.60
2023-04-19T22:50:25.497Z,99817.29
2023-04-19T22:52:59.027Z,99808.49
2023-04-19T22:55:32.637Z,99809.31
2023-04-19T22:58:06.593Z,99805.73
2023-04-19T23:00:41.197Z,99803.92
2023-04-19T23:03:14.972Z,99798.59
2023-04-19T23:05:48.561Z,99795.94
2023-04-19T23:08:22.151Z,99797.69
2023-04-19T23:10:55.690Z,99795.02
2023-04-19T23:13:29.556Z,99786.28
2023-04-19T23:16:03.458Z,99788.80
2023-04-19T23:18:37.158Z,99794.00
2023-04-19T23:21:10.614Z,99790.55
2023-04-19T23:23:44.456Z,99784.36
2023-04-19T23:26:18.034Z,99779.09
2023-04-19T23:28:51.860Z,99777.22
2023-04-19T23:31:25.567Z,99781.44
2023-04-19T23:33:59.252Z,99779.62
2023-04-19T23:36:32.958Z,99781.30
2023-04-19T23:39:06.665Z,99779.48
2023-04-19T23:41:40.298Z,99780.22
2023-04-19T23:44:13.620Z,99782.59
2023-04-19T23:46:47.188Z,99777.33
2023-04-19T23:49:20.942Z,99771.25
2023-04-19T23:51:54.733Z,99773.88
2023-04-19T23:54:28.374Z,99772.95
2023-04-19T23:57:07.203Z,99772.92
2023-04-19T23:59:40.580Z,99774.58
